KFST/FST METAR and TAF weather

Enter ICAO airport designator
Station Type Date Time Source
KFST METAR 2022/06/28 09:53 UTC NOAA

KFST 280953Z AUTO 16005KT 10SM OVC110 21/16 A3025 RMK AO2 SLP194 T02110161


Station Type Date Time Source
KFST Decoded METAR 2022/06/28 09:53 UTC NOAA

FORT STOCKTON PECOS CO AIRPORT , TX, United States (KFST) 30-55N 102-55W 918M
Jun 28, 2022 - 05:53 AM EDT / 2022.06.28 0953 UTC
Wind: from the SSE (160 degrees) at 6 MPH (5 KT):0
Visibility: 10 mile(s):0
Sky conditions: overcast
Temperature: 70.0 F (21.1 C)
Dew Point: 61.0 F (16.1 C)
Relative Humidity: 73%
Pressure (altimeter): 30.25 in. Hg (1024 hPa)
ob: KFST 280953Z AUTO 16005KT 10SM OVC110 21/16 A3025 RMK AO2 SLP194 T02110161
cycle: 10

Station Type Date Time Source
KFST TAF 2022/06/28 06:22 UTC NOAA

TAF KFST 280520Z 2806/2906 11007KT P6SM SCT100 BKN250

Example: see airport list